createdAt,value
2023-04-18T00:01:52.373Z,60778.69
2023-04-18T00:04:20.683Z,60778.69
2023-04-18T00:06:49.891Z,60778.69
2023-04-18T00:09:17.696Z,60778.69
2023-04-18T00:11:45.393Z,60778.69
2023-04-18T00:14:15.438Z,60778.69
2023-04-18T00:16:43.356Z,60778.69
2023-04-18T00:19:11.049Z,60778.69
2023-04-18T00:21:44.567Z,60778.69
2023-04-18T00:24:12.450Z,60778.69
2023-04-18T00:26:40.264Z,60778.69
2023-04-18T00:29:07.942Z,60778.69
2023-04-18T00:31:36.426Z,60778.69
2023-04-18T00:34:04.285Z,60778.69
2023-04-18T00:36:35.558Z,60778.69
2023-04-18T00:39:03.442Z,60778.69
2023-04-18T00:41:31.388Z,60778.69
2023-04-18T00:43:59.048Z,60778.69
2023-04-18T00:46:26.872Z,60778.69
2023-04-18T00:48:54.642Z,60778.69
2023-04-18T00:51:22.724Z,60778.69
2023-04-18T00:53:51.268Z,60778.69
2023-04-18T00:56:19.417Z,60778.69
2023-04-18T00:58:47.237Z,60778.69
2023-04-18T01:01:14.919Z,60778.69
2023-04-18T01:03:44.198Z,60778.69
2023-04-18T01:06:12.115Z,60778.69
2023-04-18T01:08:41.084Z,60778.69
2023-04-18T01:11:08.800Z,60778.69
2023-04-18T01:13:36.480Z,60778.69
2023-04-18T01:16:05.462Z,60778.69
2023-04-18T01:18:35.039Z,60778.69
2023-04-18T01:21:02.776Z,60778.69
2023-04-18T01:23:30.696Z,60778.69
2023-04-18T01:25:58.421Z,60778.69
2023-04-18T01:28:27.798Z,60778.69
2023-04-18T01:30:57.028Z,60778.69
2023-04-18T01:33:24.804Z,60778.69
2023-04-18T01:35:52.419Z,60778.69
2023-04-18T01:38:20.150Z,60778.69
2023-04-18T01:40:47.935Z,60778.69
2023-04-18T01:43:15.909Z,60778.69
2023-04-18T01:45:43.621Z,60778.69
2023-04-18T01:48:11.292Z,60778.69
2023-04-18T01:50:42.103Z,60778.69
2023-04-18T01:53:11.943Z,60778.69
2023-04-18T01:55:39.554Z,60778.69
2023-04-18T01:58:07.296Z,60778.69
2023-04-18T02:00:36.595Z,60778.69
2023-04-18T02:03:06.304Z,60778.69
2023-04-18T02:05:36.469Z,60778.69
2023-04-18T02:08:04.358Z,60778.69
2023-04-18T02:10:31.952Z,60778.69
2023-04-18T02:12:59.653Z,60778.69
2023-04-18T02:15:27.253Z,60778.69
2023-04-18T02:17:55.229Z,60778.69
2023-04-18T02:20:26.127Z,60778.69
2023-04-18T02:22:54.739Z,60778.69
2023-04-18T02:25:24.128Z,60778.69
2023-04-18T02:27:51.777Z,60778.69
2023-04-18T02:30:19.507Z,60778.69
2023-04-18T02:32:47.390Z,60778.69
2023-04-18T02:35:15.586Z,60778.69
2023-04-18T02:37:43.393Z,60778.69
2023-04-18T02:40:13.779Z,60778.69
2023-04-18T02:42:41.659Z,60778.69
2023-04-18T02:45:09.824Z,60778.69
2023-04-18T02:47:51.117Z,60778.69
2023-04-18T02:50:22.223Z,60778.69
2023-04-18T02:52:50.504Z,60778.69
2023-04-18T02:55:21.864Z,60778.69
2023-04-18T02:57:49.733Z,60778.69
2023-04-18T03:00:36.407Z,60778.69
2023-04-18T03:03:10.384Z,60778.69
2023-04-18T03:05:42.797Z,60778.69
2023-04-18T03:08:10.898Z,60778.69
2023-04-18T03:10:39.919Z,60778.69
2023-04-18T03:13:07.988Z,60778.69
2023-04-18T03:15:35.771Z,60778.69
2023-04-18T03:18:05.333Z,60778.69
2023-04-18T03:20:37.598Z,60778.69
2023-04-18T03:23:07.465Z,60778.69
2023-04-18T03:25:36.154Z,60778.69
2023-04-18T03:28:05.157Z,60778.69
2023-04-18T03:30:34.249Z,60778.69
2023-04-18T03:33:05.125Z,60778.69
2023-04-18T03:35:33.492Z,60778.69
2023-04-18T03:38:01.149Z,60778.69
2023-04-18T03:40:31.862Z,60778.69
2023-04-18T03:43:06.131Z,60778.69
2023-04-18T03:45:34.028Z,60778.69
2023-04-18T03:48:01.911Z,60778.69
2023-04-18T03:50:30.614Z,60778.69
2023-04-18T03:52:59.197Z,60778.69
2023-04-18T03:55:27.882Z,60778.69
2023-04-18T03:57:55.538Z,60778.69
2023-04-18T04:00:28.264Z,60778.69
2023-04-18T04:03:02.242Z,60778.69
2023-04-18T04:05:30.149Z,60778.69
2023-04-18T04:07:58.114Z,60778.69
2023-04-18T04:10:26.001Z,60778.69
2023-04-18T04:12:54.586Z,60778.69
2023-04-18T04:15:22.583Z,60778.69
2023-04-18T04:17:56.428Z,60778.69
2023-04-18T04:20:25.795Z,60778.69
2023-04-18T04:23:01.412Z,60778.69
2023-04-18T04:25:30.846Z,60778.69
2023-04-18T04:28:02.804Z,60778.69
2023-04-18T04:30:33.873Z,60778.69
2023-04-18T04:33:02.011Z,60778.69
2023-04-18T04:35:30.127Z,60778.69
2023-04-18T04:37:58.898Z,60778.69
2023-04-18T04:40:33.431Z,60778.69
2023-04-18T04:43:12.747Z,60778.69
2023-04-18T04:45:43.596Z,60778.69
2023-04-18T04:48:11.333Z,60778.69
2023-04-18T04:50:41.747Z,60778.69
2023-04-18T04:53:12.361Z,60778.69
2023-04-18T04:55:40.493Z,60778.69
2023-04-18T04:58:08.427Z,60778.69
2023-04-18T05:00:57.975Z,60778.69
2023-04-18T05:03:26.217Z,60778.69
2023-04-18T05:05:54.140Z,60778.69
2023-04-18T05:08:22.575Z,60778.69
2023-04-18T05:10:50.965Z,60778.69
2023-04-18T05:13:18.672Z,60778.69
2023-04-18T05:15:46.428Z,60778.69
2023-04-18T05:18:15.415Z,60778.69
2023-04-18T05:20:43.205Z,60778.69
2023-04-18T05:23:10.912Z,60778.69
2023-04-18T05:25:38.631Z,60778.69
2023-04-18T05:28:08.229Z,60778.69
2023-04-18T05:30:36.056Z,60778.69
2023-04-18T05:33:03.879Z,60778.69
2023-04-18T05:35:31.886Z,60778.69
2023-04-18T05:37:59.624Z,60778.69
2023-04-18T05:40:27.660Z,60778.69
2023-04-18T05:42:55.333Z,60778.69
2023-04-18T05:45:23.208Z,60778.69
2023-04-18T05:47:51.205Z,60778.69
2023-04-18T05:50:19.073Z,60778.69
2023-04-18T05:52:46.719Z,60778.69
2023-04-18T05:55:14.328Z,60778.69
2023-04-18T05:57:42.068Z,60778.69
2023-04-18T06:00:11.866Z,60778.69
2023-04-18T06:02:42.440Z,60778.69
2023-04-18T06:05:12.255Z,60778.69
2023-04-18T06:07:40.212Z,60778.69
2023-04-18T06:10:11.193Z,60778.69
2023-04-18T06:12:39.690Z,60778.69
2023-04-18T06:15:08.166Z,60778.69
2023-04-18T06:17:35.955Z,60778.69
2023-04-18T06:20:06.152Z,60778.69
2023-04-18T06:22:34.146Z,60778.69
2023-04-18T06:25:02.000Z,60778.69
2023-04-18T06:27:31.572Z,60778.69
2023-04-18T06:29:59.826Z,60778.69
2023-04-18T06:32:27.645Z,60778.69
2023-04-18T06:34:55.424Z,60778.69
2023-04-18T06:37:23.817Z,60778.69
2023-04-18T06:39:51.509Z,60778.69
2023-04-18T06:42:21.612Z,60778.69
2023-04-18T06:44:50.411Z,60778.69
2023-04-18T06:47:18.198Z,60778.69
2023-04-18T06:49:45.818Z,60778.69
2023-04-18T06:52:13.416Z,60778.69
2023-04-18T06:54:41.032Z,60778.69
2023-04-18T06:57:09.258Z,60778.69
2023-04-18T06:59:37.482Z,60778.69
2023-04-18T07:02:05.271Z,60778.69
2023-04-18T07:04:33.096Z,60778.69
2023-04-18T07:07:01.952Z,60778.69
2023-04-18T07:09:29.757Z,60778.69
2023-04-18T07:11:57.848Z,60778.69
2023-04-18T07:14:25.715Z,60778.69
2023-04-18T07:16:53.491Z,60778.69
2023-04-18T07:19:21.241Z,60778.69
2023-04-18T07:21:48.816Z,60778.69
2023-04-18T07:24:16.628Z,60778.69
2023-04-18T07:26:44.760Z,60778.69
2023-04-18T07:29:12.494Z,60778.69
2023-04-18T07:31:40.316Z,60778.69
2023-04-18T07:34:09.150Z,60778.69
2023-04-18T07:36:37.700Z,60778.69
2023-04-18T07:39:05.562Z,60778.69
2023-04-18T07:41:34.511Z,60778.69
2023-04-18T07:44:02.757Z,60778.69
2023-04-18T07:46:32.513Z,60778.69
2023-04-18T07:49:02.330Z,60778.69
2023-04-18T07:51:32.838Z,60778.69
2023-04-18T07:54:00.912Z,60778.69
2023-04-18T07:56:28.675Z,60778.69
2023-04-18T07:58:56.334Z,60778.69
2023-04-18T08:01:27.091Z,60778.69
2023-04-18T08:03:56.582Z,60778.69
2023-04-18T08:06:24.402Z,60778.69
2023-04-18T08:08:52.397Z,60778.69
2023-04-18T08:11:21.008Z,60778.69
2023-04-18T08:13:48.792Z,60778.69
2023-04-18T08:16:17.428Z,60778.69
2023-04-18T08:18:45.537Z,60778.69
2023-04-18T08:21:13.237Z,60778.69
2023-04-18T08:23:41.068Z,60778.69
2023-04-18T08:26:08.891Z,60778.69
2023-04-18T08:28:36.560Z,60778.69
2023-04-18T08:31:04.485Z,60778.69
2023-04-18T08:33:32.774Z,60778.69
2023-04-18T08:36:00.762Z,60778.69
2023-04-18T08:38:28.503Z,60778.69
2023-04-18T08:40:56.360Z,60778.69
2023-04-18T08:43:25.260Z,60778.69
2023-04-18T08:46:00.142Z,60778.69
2023-04-18T08:48:28.335Z,60778.69
2023-04-18T08:50:59.844Z,60778.69
2023-04-18T08:53:27.601Z,60778.69
2023-04-18T08:55:57.214Z,60778.69
2023-04-18T08:58:27.529Z,60778.69
2023-04-18T09:00:55.632Z,60778.69
2023-04-18T09:03:41.720Z,60778.69
2023-04-18T09:06:18.966Z,60778.69
2023-04-18T09:09:03.962Z,60778.69
2023-04-18T09:11:34.325Z,60778.69
2023-04-18T09:14:02.396Z,60778.69
2023-04-18T09:16:50.414Z,60778.69
2023-04-18T09:19:18.632Z,60778.69
2023-04-18T09:21:48.720Z,60778.69
2023-04-18T09:24:27.185Z,60778.69
2023-04-18T09:26:56.948Z,60778.69
2023-04-18T09:29:46.921Z,60778.69
2023-04-18T09:32:30.589Z,60778.69
2023-04-18T09:35:04.095Z,60778.69
2023-04-18T09:37:32.434Z,60778.69
2023-04-18T09:40:00.123Z,60778.69
2023-04-18T09:42:36.186Z,60778.69
2023-04-18T09:45:08.351Z,60778.69
2023-04-18T09:47:37.806Z,60778.69
2023-04-18T09:50:08.421Z,60778.69
2023-04-18T09:52:41.955Z,60778.69
2023-04-18T09:55:16.395Z,60778.69
2023-04-18T09:57:47.187Z,60778.69
2023-04-18T10:00:27.179Z,60778.69
2023-04-18T10:03:09.976Z,60778.69
2023-04-18T10:05:41.674Z,60778.69
2023-04-18T10:08:10.588Z,60778.69
2023-04-18T10:10:39.157Z,60778.69
2023-04-18T10:13:11.069Z,60778.69
2023-04-18T10:15:39.105Z,60778.69
2023-04-18T10:18:14.968Z,60778.69
2023-04-18T10:20:42.794Z,60778.69
2023-04-18T10:23:32.218Z,60778.69
2023-04-18T10:26:00.158Z,60778.69
2023-04-18T10:28:48.069Z,60778.69
2023-04-18T10:31:17.032Z,60778.69
2023-04-18T10:34:03.302Z,60778.69
2023-04-18T10:36:33.033Z,60778.69
2023-04-18T10:39:22.244Z,60778.69
2023-04-18T10:41:51.413Z,60778.69
2023-04-18T10:44:22.574Z,60778.69
2023-04-18T10:46:53.372Z,60778.69
2023-04-18T10:49:26.380Z,60778.69
2023-04-18T10:51:58.619Z,60778.69
2023-04-18T10:54:32.159Z,60778.69
2023-04-18T10:57:04.599Z,60778.69
2023-04-18T10:59:39.247Z,60778.69
2023-04-18T11:02:25.561Z,60778.69
2023-04-18T11:04:55.829Z,60778.69
2023-04-18T11:07:40.930Z,60778.69
2023-04-18T11:10:09.745Z,60778.69
2023-04-18T11:12:40.257Z,60778.69
2023-04-18T11:15:17.410Z,60778.69
2023-04-18T11:17:45.127Z,60778.69
2023-04-18T11:20:14.836Z,60778.69
2023-04-18T11:22:58.121Z,60778.69
2023-04-18T11:25:36.327Z,60778.69
2023-04-18T11:28:04.977Z,60778.69
2023-04-18T11:30:40.932Z,60778.69
2023-04-18T11:33:09.890Z,60778.69
2023-04-18T11:35:44.955Z,60778.69
2023-04-18T11:38:15.880Z,60778.69
2023-04-18T11:40:50.932Z,60778.69
2023-04-18T11:43:25.555Z,60778.69
2023-04-18T11:45:57.536Z,60778.69
2023-04-18T11:48:45.351Z,60778.69
2023-04-18T11:51:36.135Z,60778.69
2023-04-18T11:54:04.098Z,60778.69
2023-04-18T11:56:32.972Z,60778.69
2023-04-18T11:59:09.514Z,60778.69
2023-04-18T12:01:37.349Z,60778.69
2023-04-18T12:04:09.019Z,60778.69
2023-04-18T12:06:50.979Z,60778.69
2023-04-18T12:09:22.098Z,60778.69
2023-04-18T12:12:01.575Z,60778.69
2023-04-18T12:14:30.026Z,60778.69
2023-04-18T12:16:57.887Z,60778.69
2023-04-18T12:19:28.063Z,60778.69
2023-04-18T12:22:01.571Z,60778.69
2023-04-18T12:24:29.406Z,60778.69
2023-04-18T12:26:58.097Z,60778.69
2023-04-18T12:29:27.446Z,60778.69
2023-04-18T12:31:55.611Z,60778.69
2023-04-18T12:34:23.377Z,60778.69
2023-04-18T12:36:51.004Z,60778.69
2023-04-18T12:39:18.837Z,60778.69
2023-04-18T12:41:49.050Z,60778.69
2023-04-18T12:44:17.749Z,60778.69
2023-04-18T12:46:45.687Z,60778.69
2023-04-18T12:49:13.343Z,60778.69
2023-04-18T12:51:41.071Z,60778.69
2023-04-18T12:54:08.910Z,60778.69
2023-04-18T12:56:36.536Z,60778.69
2023-04-18T12:59:04.362Z,60778.69
2023-04-18T13:01:32.203Z,60778.69
2023-04-18T13:04:08.805Z,60778.69
2023-04-18T13:06:39.980Z,60778.69
2023-04-18T13:09:08.340Z,60778.69
2023-04-18T13:11:36.301Z,60778.69
2023-04-18T13:14:03.979Z,60778.69
2023-04-18T13:16:31.902Z,60778.69
2023-04-18T13:18:59.565Z,60778.69
2023-04-18T13:21:27.486Z,60778.69
2023-04-18T13:23:55.174Z,60778.69
2023-04-18T13:26:22.790Z,60778.69
2023-04-18T13:28:50.604Z,60778.69
2023-04-18T13:31:18.324Z,60778.69
2023-04-18T13:33:46.014Z,60778.69
2023-04-18T13:36:13.749Z,60778.69
2023-04-18T13:38:41.935Z,60778.69
2023-04-18T13:41:13.595Z,60778.69
2023-04-18T13:43:41.673Z,60778.69
2023-04-18T13:46:09.698Z,60778.69
2023-04-18T13:48:37.469Z,60778.69
2023-04-18T13:51:05.785Z,60778.69
2023-04-18T13:53:34.295Z,60778.69
2023-04-18T13:56:02.127Z,60778.69
2023-04-18T13:58:29.915Z,60778.69
2023-04-18T14:00:57.600Z,60778.69
2023-04-18T14:03:25.596Z,60778.69
2023-04-18T14:05:53.341Z,60778.69
2023-04-18T14:08:21.159Z,60778.69
2023-04-18T14:10:48.788Z,60778.69
2023-04-18T14:13:16.852Z,60778.69
2023-04-18T14:15:55.011Z,60778.69
2023-04-18T14:18:24.572Z,60778.69
2023-04-18T14:20:52.192Z,60778.69
2023-04-18T14:23:20.118Z,60778.69
2023-04-18T14:25:47.840Z,60778.69
2023-04-18T14:28:17.424Z,60778.69
2023-04-18T14:30:48.529Z,60778.69
2023-04-18T14:33:16.374Z,60778.69
2023-04-18T14:35:44.132Z,60778.69
2023-04-18T14:38:11.955Z,60778.69
2023-04-18T14:40:39.837Z,60778.69
2023-04-18T14:43:07.812Z,60778.69
2023-04-18T14:45:35.689Z,60778.69
2023-04-18T14:48:03.526Z,60778.69
2023-04-18T14:50:31.468Z,60778.69
2023-04-18T14:52:59.336Z,60778.69
2023-04-18T14:55:27.294Z,60778.69
2023-04-18T14:57:54.912Z,60778.69
2023-04-18T15:00:22.657Z,60778.69
2023-04-18T15:02:50.826Z,60778.69
2023-04-18T15:05:20.475Z,60778.69
2023-04-18T15:07:48.133Z,60778.69
2023-04-18T15:10:16.194Z,60778.69
2023-04-18T15:12:44.161Z,60778.69
2023-04-18T15:15:12.223Z,60778.69
2023-04-18T15:17:40.455Z,60778.69
2023-04-18T15:20:09.360Z,60778.69
2023-04-18T15:22:37.164Z,60778.69
2023-04-18T15:25:05.714Z,60778.69
2023-04-18T15:27:33.677Z,60778.69
2023-04-18T15:30:02.355Z,60778.69
2023-04-18T15:32:30.042Z,60778.69
2023-04-18T15:34:57.824Z,60778.69
2023-04-18T15:37:26.271Z,60778.69
2023-04-18T15:39:53.843Z,60778.69
2023-04-18T15:42:21.588Z,60778.69
2023-04-18T15:44:49.510Z,60778.69
2023-04-18T15:47:17.152Z,60778.69
2023-04-18T15:49:44.810Z,60778.69
2023-04-18T15:52:15.794Z,60778.69
2023-04-18T15:54:43.947Z,60778.69
2023-04-18T15:57:11.600Z,60778.69
2023-04-18T15:59:39.316Z,60778.69
2023-04-18T16:02:09.334Z,60778.69
2023-04-18T16:04:39.880Z,60778.69
2023-04-18T16:07:08.738Z,60778.69
2023-04-18T16:09:36.417Z,60778.69
2023-04-18T16:12:04.743Z,60778.69
2023-04-18T16:14:33.363Z,60778.69
2023-04-18T16:17:01.282Z,60778.69
2023-04-18T16:19:29.520Z,60778.69
2023-04-18T16:21:57.570Z,60778.69
2023-04-18T16:24:25.641Z,60778.69
2023-04-18T16:26:53.507Z,60778.69
2023-04-18T16:29:21.203Z,60778.69
2023-04-18T16:31:51.251Z,60778.69
2023-04-18T16:34:19.260Z,60778.69
2023-04-18T16:36:46.847Z,60778.69
2023-04-18T16:39:15.812Z,60778.69
2023-04-18T16:41:43.381Z,60778.69
2023-04-18T16:44:11.041Z,60778.69
2023-04-18T16:46:41.115Z,60778.69
2023-04-18T16:49:08.872Z,60778.69
2023-04-18T16:51:38.329Z,60778.69
2023-04-18T16:54:06.031Z,60778.69
2023-04-18T16:56:34.287Z,60778.69
2023-04-18T16:59:05.193Z,60778.69
2023-04-18T17:01:35.281Z,60778.69
2023-04-18T17:04:03.096Z,60778.69
2023-04-18T17:06:31.916Z,60778.69
2023-04-18T17:08:59.800Z,60778.69
2023-04-18T17:11:32.032Z,60778.69
2023-04-18T17:13:59.726Z,60778.69
2023-04-18T17:16:27.430Z,60778.69
2023-04-18T17:18:55.962Z,60778.69
2023-04-18T17:21:23.666Z,60778.69
2023-04-18T17:23:51.414Z,60778.69
2023-04-18T17:26:19.121Z,60778.69
2023-04-18T17:28:46.924Z,60778.69
2023-04-18T17:31:15.207Z,60778.69
2023-04-18T17:33:43.062Z,60778.69
2023-04-18T17:36:11.286Z,60778.69
2023-04-18T17:38:40.539Z,60778.69
2023-04-18T17:41:08.189Z,60778.69
2023-04-18T17:43:36.604Z,60778.69
2023-04-18T17:46:04.485Z,60778.69
2023-04-18T17:48:32.327Z,60778.69
2023-04-18T17:51:00.505Z,60778.69
2023-04-18T17:53:32.318Z,60778.69
2023-04-18T17:56:00.518Z,60778.69
2023-04-18T17:58:28.340Z,60778.69
2023-04-18T18:00:56.466Z,60778.69
2023-04-18T18:03:24.700Z,60778.69
2023-04-18T18:05:54.819Z,60778.69
2023-04-18T18:08:22.806Z,60778.69
2023-04-18T18:10:56.971Z,60778.69
2023-04-18T18:13:27.982Z,60778.69
2023-04-18T18:15:57.574Z,60778.69
2023-04-18T18:18:31.456Z,60778.69
2023-04-18T18:20:59.509Z,60778.69
2023-04-18T18:23:28.335Z,60778.69
2023-04-18T18:25:56.114Z,60778.69
2023-04-18T18:28:23.830Z,60778.69
2023-04-18T18:30:51.709Z,60778.69
2023-04-18T18:33:19.649Z,60778.69
2023-04-18T18:35:50.497Z,60778.69
2023-04-18T18:38:18.288Z,60778.69
2023-04-18T18:40:46.307Z,60778.69
2023-04-18T18:43:14.111Z,60778.69
2023-04-18T18:45:41.956Z,60778.69
2023-04-18T18:48:10.415Z,60778.69
2023-04-18T18:50:38.064Z,60778.69
2023-04-18T18:53:06.210Z,60778.69
2023-04-18T18:55:33.878Z,60778.69
2023-04-18T18:58:02.529Z,60778.69
2023-04-18T19:00:30.208Z,60778.69
2023-04-18T19:02:57.991Z,60778.69
2023-04-18T19:05:25.825Z,60778.69
2023-04-18T19:07:53.544Z,60778.69
2023-04-18T19:10:21.340Z,60778.69
2023-04-18T19:12:48.984Z,60778.69
2023-04-18T19:15:16.642Z,60778.69
2023-04-18T19:17:44.439Z,60778.69
2023-04-18T19:20:12.314Z,60778.69
2023-04-18T19:22:40.437Z,60778.69
2023-04-18T19:25:09.424Z,60778.69
2023-04-18T19:27:38.176Z,60778.69
2023-04-18T19:30:06.946Z,60778.69
2023-04-18T19:32:34.878Z,60778.69
2023-04-18T19:35:02.622Z,60778.69
2023-04-18T19:37:33.848Z,60778.69
2023-04-18T19:40:02.810Z,60778.69
2023-04-18T19:42:30.568Z,60778.69
2023-04-18T19:44:59.282Z,60778.69
2023-04-18T19:47:27.918Z,60778.69
2023-04-18T21:00:09.198Z,102549.59
2023-04-18T21:02:37.575Z,102547.28
2023-04-18T21:05:05.707Z,102553.75
2023-04-18T21:07:34.207Z,102548.09
2023-04-18T21:10:03.911Z,102550.56
2023-04-18T21:12:31.594Z,102549.88
2023-04-18T21:14:59.261Z,102548.53
2023-04-18T21:17:27.046Z,102543.97
2023-04-18T21:19:55.711Z,102541.09
2023-04-18T21:22:23.378Z,102544.19
2023-04-18T21:24:50.983Z,102541.63
2023-04-18T21:27:18.572Z,102541.53
2023-04-18T21:29:46.208Z,102540.50
2023-04-18T21:32:13.762Z,102541.84
2023-04-18T21:34:41.386Z,102537.13
2023-04-18T21:37:09.059Z,102556.19
2023-04-18T21:39:38.178Z,102543.47
2023-04-18T21:42:05.823Z,102542.78
2023-04-18T21:44:33.594Z,102546.66
2023-04-18T21:47:01.200Z,102546.56
2023-04-18T21:49:28.882Z,102547.72
2023-04-18T21:51:56.520Z,102548.34
2023-04-18T21:54:24.126Z,102552.28
2023-04-18T21:56:51.729Z,102552.34
2023-04-18T21:59:19.316Z,102549.50
2023-04-18T22:01:46.950Z,102556.41
2023-04-18T22:04:16.104Z,102542.75
2023-04-18T22:06:44.210Z,102542.91
2023-04-18T22:09:12.622Z,102537.38
2023-04-18T22:11:40.680Z,102544.63
2023-04-18T22:14:09.896Z,102535.22
2023-04-18T22:16:38.470Z,102539.59
2023-04-18T22:19:06.898Z,102536.94
2023-04-18T22:21:34.668Z,102537.41
2023-04-18T22:24:02.405Z,102541.16
2023-04-18T22:26:29.974Z,102539.72
2023-04-18T22:28:57.611Z,102540.03
2023-04-18T22:31:25.401Z,102522.84
2023-04-18T22:33:53.067Z,102535.50
2023-04-18T22:36:20.907Z,102534.88
2023-04-18T22:38:48.501Z,102525.19
2023-04-18T22:41:16.319Z,102528.66
2023-04-18T22:43:44.197Z,102531.75
2023-04-18T22:46:12.092Z,102520.13
2023-04-18T22:48:39.683Z,102532.34
2023-04-18T22:51:07.528Z,102521.22
2023-04-18T22:53:35.215Z,102521.97
2023-04-18T22:56:02.838Z,102524.72
2023-04-18T22:58:31.318Z,102519.44
2023-04-18T23:00:59.715Z,102522.13
2023-04-18T23:03:27.588Z,102521.16
2023-04-18T23:05:55.868Z,102507.97
2023-04-18T23:08:23.462Z,102515.25
2023-04-18T23:10:51.195Z,102513.66
2023-04-18T23:13:18.822Z,102523.63
2023-04-18T23:15:46.622Z,102523.59
2023-04-18T23:18:14.500Z,102514.59
2023-04-18T23:20:42.329Z,102515.81
2023-04-18T23:23:09.979Z,102514.41
2023-04-18T23:25:38.265Z,102513.91
2023-04-18T23:28:06.462Z,102508.34
2023-04-18T23:30:36.765Z,102510.47
2023-04-18T23:33:04.509Z,102507.44
2023-04-18T23:35:32.087Z,102513.00
2023-04-18T23:37:59.735Z,102506.03
2023-04-18T23:40:27.331Z,102512.25
2023-04-18T23:42:55.004Z,102503.63
2023-04-18T23:45:24.274Z,102508.22
2023-04-18T23:47:52.091Z,102505.09
2023-04-18T23:50:19.966Z,102501.72
2023-04-18T23:52:47.583Z,102502.13
2023-04-18T23:55:15.158Z,102492.81
2023-04-18T23:57:42.887Z,102491.19
